AirNav   Phillips 66 Aviation Fuel
 
 755 users online  

32FD Star Aviation Heliport
Riverview, Florida, USA


FAA INFORMATION EFFECTIVE 12 OCTOBER 2017

Location

FAA Identifier: 32FD
Lat/Long: 27-54-16.0000N / 082-23-00.0000W
27-54.266667N / 082-23.000000W
27.9044444 / -82.3833333
(estimated)
Elevation: 13 ft. / 4 m (estimated)
From city: 5 miles SE of RIVERVIEW, FL
Time zone: UTC -4 (UTC -5 during Standard Time)
Zip code: 33578

Heliport Operations

Heliport use: Private use. Permission required prior to landing
Activation date: 06/2006
Control tower: no
ARTCC: MIAMI CENTER
FSS: SAINT PETERSBURG FLIGHT SERVICE STATION
Attendance: 0800-1700
Wind indicator: yes
Segmented circle: no

Heliport Communications

WX AWOS-3 at TPF (4 nm W): 118.925 (813-251-6824)
WX AWOS-3 at VDF (7 nm N): 121.125 (813-630-0924)
WX ASOS at TPA (9 nm NW): PHONE 813-873-7228
WX AWOS-3 at PCM (13 nm NE): 120.025 (813-764-8259)
WX ASOS at SPG (15 nm SW): 118.875 (727-821-4334)
WX ASOS at PIE (16 nm W): PHONE 727-531-3456
WX AWOS-3PT at LAL (20 nm E): 118.025 (863-834-2030)

Nearby radio navigation aids

VOR radial/distance  VOR name  Freq  Var
PIEr096/16.0ST PETERSBURG VORTAC116.4005W
LALr255/20.2LAKELAND VORTAC116.0001E
SRQr023/31.3SARASOTA VOR/DME117.0005W

 
NDB name  Hdg/Dist  Freq  Var  ID
COSME150/13.236805WTP - .--.

Heliport Services

Runway Information

Helipad H1

Dimensions: 50 x 50 ft. / 15 x 15 m
Surface: concrete
Traffic pattern: leftleft

Heliport Ownership and Management from official FAA records

Ownership: Privately-owned
Owner: STAR AVIATION
9625 WES KEARNEY WAY
RIVERVIEW, FL 33578
Phone (813) 421-8021
Manager: BING KEARNEY
9625 WES KEARNEY WAY
RIVERVIEW, FL 33578
Phone 813-379-3830
ADDITIONAL CONTACT ROSIE APPELBE MOORE - 813-335-8414

Heliport Operational Statistics

Aircraft based on the field: 2
Helicopters: 2
    

Additional Remarks

70 FT PLINE 300 FT N OF PAD RUNS E AND W. 50 FT PLINE W OF PAD RUNS N AND S.

Instrument Procedures

There are no published instrument procedures at 32FD.

Some nearby airports with instrument procedures:

KTPF - Peter O Knight Airport (4 nm W)
KVDF - Tampa Executive Airport (7 nm N)
KMCF - MacDill Air Force Base (8 nm SW)
KTPA - Tampa International Airport (9 nm NW)
KPCM - Plant City Airport (13 nm NE)
KSPG - Albert Whitted Airport (15 nm SW)
KPIE - St Pete-Clearwater International Airport (16 nm W)
KLAL - Lakeland Linder Regional Airport (20 nm E)
 
Loc | Ops | Rwys | IFR | FBO | Links
Com | Nav | Svcs | Stats | Notes


 
Area around 32FD (Star Aviation Heliport)
 
Road maps at: MapQuest Bing Google
 
Aerial photo
No photo
 
Sectional chart

 
Airport distance calculator
Flying to Star Aviation Heliport? Find the distance to fly.

From to 32FD

Sunrise and sunset
Times for 21-Oct-2017
 Local
(UTC-4)
 Zulu
(UTC)
Morning civil twilight07:1111:11
Sunrise07:3411:34
Sunset18:5422:54
Evening civil twilight19:1823:18

Current date and time
Zulu (UTC)  21-Oct-2017 12:52:28
Local (UTC-4)  21-Oct-2017 08:52:28
 
METAR
KTPF 
4nm W 
211235Z AUTO 06008KT 10SM CLR 22/22 A3011 RMK AO2
KVDF 
7nm N 
211235Z AUTO 06004KT 10SM CLR 21/20 A3012 RMK AO2
KMCF 
8nm SW 
211158Z VRB05KT 10SM CLR 23/20 A3011 RMK A02A SLP195 WND DATA AND ALSTG/SLP ESTMD
KTPA 
9nm NW 
211153Z 05003KT 10SM BKN300 23/20 A3010 RMK AO2 SLP193 T02330200 10233 20228 53012
KPCM 
13nm NE 
211235Z AUTO 06006KT 10SM CLR 23/20 A3014 RMK AO2
KSPG 
16nm SW 
211153Z 09015KT 10SM CLR 24/22 A3008 RMK AO2 SLP186 T02390217 10244 20233 53013
KPIE 
16nm W 
211153Z 06009KT 10SM CLR 24/21 A3009 RMK AO2 SLP190 T02390211 10244 20239 53012
KLAL 
20nm E 
211145Z 06006KT 10SM SCT120 22/21 A3011
TAF
KMCF 
8nm SW 
210800Z 2108/2214 06009KT 9999 FEW250 QNH3005INS BECMG 2115/2116 08012G20KT 9999 FEW030 SCT250 QNH3003INS BECMG 2123/2124 07012KT 9999 SCT035 SCT250 QNH3007INS TX31/2118Z TN22/2110Z
KTPA 
9nm NW 
211130Z 2112/2212 06006KT P6SM FEW030 BKN250 FM211500 08011KT P6SM SCT040 BKN250 FM220000 07007KT P6SM FEW050 SCT080
KPIE 
16nm W 
211130Z 2112/2212 08009KT P6SM FEW030 BKN250 FM220800 07010G15KT P6SM SCT045 BKN070
KLAL 
20nm E 
211130Z 2112/2212 06006KT P6SM FEW030 BKN250 FM211400 08011G16KT P6SM SCT040 BKN250 FM220200 07008KT P6SM SCT025 BKN050
NOTAMs
Click for the latest NOTAMs
NOTAMs are issued by the DoD/FAA and will open in a separate window not controlled by AirNav.

 

 
 

Would you like to see your business listed on this page?

 If your business provides an interesting product or service to pilots, flight crews, aircraft, or users of the Star Aviation Heliport, you should consider listing it here.  To start the listing process, click on the button below
 
Add a business
 

Other Pages about Star Aviation Heliport

Update a link
 
Copyright © AirNav, LLC. All rights reserved. Privacy Policy  Contact